createdAt,value
2019-04-10T00:01:40.814Z,9.60
2019-04-10T00:04:10.877Z,9.47
2019-04-10T00:06:41.579Z,10.53
2019-04-10T00:09:11.905Z,8.90
2019-04-10T00:11:43.167Z,10.00
2019-04-10T00:14:14.590Z,11.73
2019-04-10T00:16:46.710Z,10.50
2019-04-10T00:19:17.066Z,11.27
2019-04-10T00:21:47.486Z,10.80
2019-04-10T00:24:17.799Z,9.60
2019-04-10T00:26:48.083Z,9.13
2019-04-10T00:29:18.308Z,10.10
2019-04-10T00:31:48.795Z,10.20
2019-04-10T00:34:19.066Z,10.17
2019-04-10T00:36:49.310Z,10.50
2019-04-10T00:39:20.122Z,10.03
2019-04-10T00:41:50.679Z,9.10
2019-04-10T00:44:21.631Z,9.10
2019-04-10T00:46:52.782Z,9.70
2019-04-10T00:49:23.959Z,9.20
2019-04-10T00:51:55.383Z,8.53
2019-04-10T00:54:26.918Z,8.40
2019-04-10T00:56:57.136Z,9.40
2019-04-10T00:59:28.214Z,9.37
2019-04-10T01:01:58.565Z,9.70
2019-04-10T01:04:28.786Z,10.70
2019-04-10T01:07:00.115Z,9.70
2019-04-10T01:09:31.147Z,9.37
2019-04-10T01:12:01.641Z,9.10
2019-04-10T01:14:33.978Z,10.00
2019-04-10T01:17:04.213Z,10.93
2019-04-10T01:19:34.793Z,10.23
2019-04-10T01:22:04.954Z,10.57
2019-04-10T01:24:35.534Z,11.57
2019-04-10T01:27:07.640Z,11.53
2019-04-10T01:29:38.083Z,11.33
2019-04-10T01:32:09.773Z,11.20
2019-04-10T01:34:40.054Z,11.50
2019-04-10T01:37:12.332Z,11.13
2019-04-10T01:39:42.661Z,10.97
2019-04-10T01:42:12.861Z,10.83
2019-04-10T01:44:43.117Z,10.13
2019-04-10T01:47:13.293Z,9.03
2019-04-10T01:49:43.957Z,9.87
2019-04-10T01:52:15.081Z,10.17
2019-04-10T01:54:45.692Z,11.20
2019-04-10T01:57:16.687Z,11.53
2019-04-10T01:59:47.846Z,10.97
2019-04-10T02:02:27.651Z,10.97
2019-04-10T02:04:58.456Z,11.43
2019-04-10T02:07:29.846Z,11.00
2019-04-10T02:10:01.489Z,11.00
2019-04-10T02:12:31.875Z,10.63
2019-04-10T02:15:04.843Z,10.23
2019-04-10T02:17:35.254Z,10.27
2019-04-10T02:20:06.819Z,10.87
2019-04-10T02:22:38.378Z,10.03
2019-04-10T02:25:08.946Z,9.67
2019-04-10T02:27:39.097Z,9.03
2019-04-10T02:30:12.012Z,10.13
2019-04-10T02:32:45.147Z,11.27
2019-04-10T02:35:17.192Z,10.10
2019-04-10T02:37:49.345Z,10.87
2019-04-10T02:40:19.252Z,12.73
2019-04-10T02:42:51.232Z,11.63
2019-04-10T02:45:21.924Z,10.40
2019-04-10T02:47:52.878Z,9.77
2019-04-10T02:50:25.108Z,9.40
2019-04-10T02:52:55.622Z,9.77
2019-04-10T02:55:27.342Z,10.20
2019-04-10T02:57:58.768Z,9.27
2019-04-10T03:00:30.328Z,9.27
2019-04-10T03:03:01.344Z,9.33
2019-04-10T03:05:32.599Z,9.57
2019-04-10T03:08:04.857Z,10.27
2019-04-10T03:10:41.853Z,11.20
2019-04-10T03:13:08.948Z,10.50
2019-04-10T03:15:40.945Z,9.60
2019-04-10T03:18:11.179Z,10.10
2019-04-10T03:20:42.732Z,9.87
2019-04-10T03:23:13.509Z,10.90
2019-04-10T03:25:43.944Z,10.03
2019-04-10T03:28:14.592Z,10.57
2019-04-10T03:30:46.489Z,10.23
2019-04-10T03:33:44.197Z,10.13
2019-04-10T03:36:11.412Z,10.23
2019-04-10T03:38:52.728Z,11.10
2019-04-10T03:41:13.613Z,9.90
2019-04-10T03:43:43.871Z,9.53
2019-04-10T03:46:14.186Z,10.23
2019-04-10T03:48:45.216Z,11.17
2019-04-10T03:51:16.486Z,10.37
2019-04-10T03:53:46.933Z,9.50
2019-04-10T03:56:17.954Z,9.80
2019-04-10T03:58:49.439Z,9.73
2019-04-10T04:01:19.918Z,10.13
2019-04-10T04:03:51.100Z,10.60
2019-04-10T04:06:21.702Z,11.70
2019-04-10T04:09:05.214Z,11.40
2019-04-10T04:11:23.986Z,12.63
2019-04-10T04:13:55.595Z,14.00
2019-04-10T04:16:26.788Z,17.07
2019-04-10T04:18:57.663Z,21.90
2019-04-10T04:21:28.087Z,20.07
2019-04-10T04:23:59.441Z,14.57
2019-04-10T04:26:29.813Z,15.77
2019-04-10T04:29:00.030Z,14.13
2019-04-10T04:31:31.213Z,15.73
2019-04-10T04:34:01.946Z,14.73
2019-04-10T04:36:33.027Z,14.60
2019-04-10T04:39:17.956Z,14.03
2019-04-10T04:41:40.038Z,13.73
2019-04-10T04:44:10.527Z,13.77
2019-04-10T04:46:40.778Z,13.13
2019-04-10T04:49:11.532Z,14.23
2019-04-10T04:51:41.950Z,12.30
2019-04-10T04:54:12.949Z,12.50
2019-04-10T04:56:44.162Z,12.30
2019-04-10T04:59:14.458Z,12.43
2019-04-10T05:01:44.762Z,11.43
2019-04-10T05:04:15.231Z,11.57
2019-04-10T05:06:48.429Z,10.93
2019-04-10T05:09:29.868Z,10.43
2019-04-10T05:11:51.053Z,9.30
2019-04-10T05:14:21.700Z,9.00
2019-04-10T05:16:52.104Z,9.93
2019-04-10T05:19:22.289Z,9.60
2019-04-10T05:21:52.499Z,9.10
2019-04-10T05:24:22.815Z,10.63
2019-04-10T05:26:53.531Z,20.07
2019-04-10T05:29:24.965Z,23.73
2019-04-10T05:31:55.244Z,19.30
2019-04-10T05:34:25.549Z,21.70
2019-04-10T05:36:56.829Z,19.17
2019-04-10T05:39:39.196Z,9.77
2019-04-10T05:42:04.269Z,14.80
2019-04-10T05:44:34.503Z,17.93
2019-04-10T05:47:05.371Z,21.00
2019-04-10T05:49:35.711Z,25.13
2019-04-10T05:52:06.121Z,21.47
2019-04-10T05:54:37.410Z,19.80
2019-04-10T05:57:08.345Z,10.50
2019-04-10T05:59:38.606Z,10.57
2019-04-10T06:02:09.419Z,7.57
2019-04-10T06:04:39.749Z,7.40
2019-04-10T06:07:10.684Z,6.87
2019-04-10T06:09:51.921Z,9.37
2019-04-10T06:12:13.942Z,12.63
2019-04-10T06:14:44.262Z,12.47
2019-04-10T06:17:16.434Z,8.77
2019-04-10T06:19:46.895Z,6.20
2019-04-10T06:22:17.055Z,5.80
2019-04-10T06:24:47.257Z,6.20
2019-04-10T06:27:18.416Z,6.10
2019-04-10T06:29:48.984Z,5.87
2019-04-10T06:32:19.226Z,6.13
2019-04-10T06:34:50.227Z,6.17
2019-04-10T06:37:20.492Z,5.93
2019-04-10T06:39:51.156Z,6.50
2019-04-10T06:42:22.477Z,6.20
2019-04-10T06:44:52.883Z,7.17
2019-04-10T06:47:24.304Z,6.10
2019-04-10T06:49:55.451Z,6.00
2019-04-10T06:52:26.912Z,6.17
2019-04-10T06:54:57.374Z,6.47
2019-04-10T06:57:27.544Z,5.80
2019-04-10T06:59:59.730Z,5.40
2019-04-10T07:02:32.350Z,5.60
2019-04-10T07:05:06.253Z,5.87
2019-04-10T07:07:45.234Z,6.00
2019-04-10T07:10:21.514Z,5.90
2019-04-10T07:12:39.739Z,6.17
2019-04-10T07:15:10.886Z,6.07
2019-04-10T07:17:41.874Z,5.50
2019-04-10T07:20:15.367Z,5.63
2019-04-10T07:22:46.645Z,7.33
2019-04-10T07:25:16.475Z,6.10
2019-04-10T07:27:46.543Z,5.03
2019-04-10T07:30:17.435Z,6.20
2019-04-10T07:32:49.101Z,5.40
2019-04-10T07:35:21.697Z,5.17
2019-04-10T07:37:54.264Z,5.00
2019-04-10T07:40:23.314Z,6.03
2019-04-10T07:42:54.561Z,5.13
2019-04-10T07:45:27.328Z,6.43
2019-04-10T07:47:57.683Z,5.50
2019-04-10T07:50:28.188Z,6.00
2019-04-10T07:52:58.374Z,5.67
2019-04-10T07:55:28.839Z,5.57
2019-04-10T07:57:59.291Z,6.17
2019-04-10T08:00:29.467Z,5.67
2019-04-10T08:02:59.650Z,6.50
2019-04-10T08:05:29.758Z,6.57
2019-04-10T08:08:00.857Z,4.93
2019-04-10T08:10:31.268Z,6.60
2019-04-10T08:13:02.385Z,5.67
2019-04-10T08:15:33.631Z,8.87
2019-04-10T08:18:04.550Z,5.97
2019-04-10T08:20:35.032Z,6.10
2019-04-10T08:23:07.410Z,6.13
2019-04-10T08:25:37.216Z,6.00
2019-04-10T08:28:07.578Z,6.40
2019-04-10T08:30:39.793Z,6.33
2019-04-10T08:33:10.147Z,6.50
2019-04-10T08:35:40.214Z,5.57
2019-04-10T08:38:10.793Z,5.77
2019-04-10T08:40:41.427Z,5.97
2019-04-10T08:43:11.833Z,5.97
2019-04-10T08:45:48.490Z,5.70
2019-04-10T08:48:15.558Z,5.97
2019-04-10T08:50:46.173Z,6.57
2019-04-10T08:53:18.040Z,6.20
2019-04-10T08:55:48.534Z,5.60
2019-04-10T08:58:18.870Z,6.67
2019-04-10T09:00:52.385Z,6.20
2019-04-10T09:03:22.486Z,5.80
2019-04-10T09:05:53.776Z,5.83
2019-04-10T09:08:24.595Z,5.67
2019-04-10T09:10:55.133Z,5.90
2019-04-10T09:13:25.382Z,7.27
2019-04-10T09:15:56.721Z,5.73
2019-04-10T09:18:27.408Z,5.23
2019-04-10T09:20:57.701Z,5.80
2019-04-10T09:23:37.921Z,6.60
2019-04-10T09:25:59.762Z,6.43
2019-04-10T09:28:30.694Z,5.83
2019-04-10T09:31:01.759Z,5.40
2019-04-10T09:33:32.418Z,5.67
2019-04-10T09:36:02.794Z,6.40
2019-04-10T09:38:33.042Z,5.90
2019-04-10T09:41:03.736Z,5.50
2019-04-10T09:43:34.101Z,5.77
2019-04-10T09:46:06.294Z,5.60
2019-04-10T09:48:37.875Z,6.03
2019-04-10T09:51:08.222Z,5.53
2019-04-10T09:53:39.171Z,5.60
2019-04-10T09:56:09.545Z,5.60
2019-04-10T09:58:40.549Z,5.90
2019-04-10T10:01:15.141Z,5.07
2019-04-10T10:03:46.599Z,5.97
2019-04-10T10:06:24.361Z,5.30
2019-04-10T10:08:48.666Z,5.77
2019-04-10T10:11:20.120Z,5.17
2019-04-10T10:13:50.497Z,5.90
2019-04-10T10:16:20.983Z,7.40
2019-04-10T10:18:51.973Z,6.00
2019-04-10T10:21:22.330Z,6.10
2019-04-10T10:23:52.570Z,6.63
2019-04-10T10:26:23.867Z,5.80
2019-04-10T10:28:54.608Z,4.87
2019-04-10T10:31:24.793Z,5.53
2019-04-10T10:33:55.108Z,5.50
2019-04-10T10:36:34.734Z,5.40
2019-04-10T10:39:07.117Z,6.13
2019-04-10T10:41:29.858Z,5.37
2019-04-10T10:44:00.613Z,5.73
2019-04-10T10:46:31.458Z,5.63
2019-04-10T10:49:02.296Z,5.60
2019-04-10T10:51:32.971Z,5.70
2019-04-10T10:54:04.498Z,5.50
2019-04-10T10:56:36.193Z,5.17
2019-04-10T10:59:06.457Z,6.30
2019-04-10T11:01:36.658Z,5.23
2019-04-10T11:04:06.853Z,6.60
2019-04-10T11:06:49.784Z,5.77
2019-04-10T11:09:13.624Z,5.37
2019-04-10T11:11:45.045Z,5.43
2019-04-10T11:14:15.726Z,5.87
2019-04-10T11:16:45.845Z,6.20
2019-04-10T11:19:17.153Z,4.97
2019-04-10T11:21:47.547Z,5.50
2019-04-10T11:24:17.765Z,5.23
2019-04-10T11:26:47.970Z,5.10
2019-04-10T11:29:19.314Z,6.40
2019-04-10T11:31:49.703Z,5.40
2019-04-10T11:34:19.975Z,6.80
2019-04-10T11:37:11.074Z,5.20
2019-04-10T11:39:26.119Z,5.43
2019-04-10T11:41:55.258Z,6.57
2019-04-10T11:44:27.511Z,7.47
2019-04-10T11:46:58.748Z,5.20
2019-04-10T11:49:31.047Z,5.53
2019-04-10T11:52:01.802Z,5.83
2019-04-10T11:54:37.590Z,5.83
2019-04-10T11:57:06.760Z,5.00
2019-04-10T11:59:38.403Z,5.40
2019-04-10T12:02:10.122Z,5.60
2019-04-10T12:04:50.682Z,5.73
2019-04-10T12:07:49.152Z,5.97
2019-04-10T12:12:17.387Z,5.63
2019-04-10T12:14:47.906Z,5.47
2019-04-10T12:17:18.221Z,5.20
2019-04-10T12:19:48.746Z,5.13
2019-04-10T12:22:21.250Z,5.27
2019-04-10T12:24:51.728Z,5.10
2019-04-10T12:27:23.023Z,6.27
2019-04-10T12:29:53.362Z,5.53
2019-04-10T12:32:23.611Z,5.90
2019-04-10T12:34:53.806Z,5.77
2019-04-10T12:37:24.114Z,5.80
2019-04-10T12:39:55.254Z,5.80
2019-04-10T12:42:25.443Z,5.70
2019-04-10T12:44:55.674Z,7.27
2019-04-10T12:47:25.974Z,8.37
2019-04-10T12:49:56.919Z,5.67
2019-04-10T12:52:27.564Z,6.17
2019-04-10T12:54:57.766Z,6.33
2019-04-10T12:57:28.635Z,5.13
2019-04-10T13:00:01.532Z,6.00
2019-04-10T13:02:30.746Z,5.57
2019-04-10T13:05:01.033Z,5.87
2019-04-10T13:07:32.434Z,5.30
2019-04-10T13:10:02.717Z,5.73
2019-04-10T13:12:33.334Z,6.83
2019-04-10T13:15:03.642Z,6.27
2019-04-10T13:17:34.991Z,5.83
2019-04-10T13:20:09.365Z,6.47
2019-04-10T13:22:40.734Z,6.30
2019-04-10T13:25:12.602Z,6.37
2019-04-10T13:27:43.172Z,8.43
2019-04-10T13:30:14.729Z,11.30
2019-04-10T13:32:45.078Z,7.17
2019-04-10T13:35:15.807Z,6.00
2019-04-10T13:37:46.065Z,5.37
2019-04-10T13:40:16.274Z,5.77
2019-04-10T13:42:47.395Z,5.23
2019-04-10T13:45:19.365Z,5.40
2019-04-10T13:47:49.716Z,5.07
2019-04-10T13:50:19.999Z,5.57
2019-04-10T13:52:52.656Z,5.70
2019-04-10T13:55:24.190Z,7.03
2019-04-10T13:57:55.037Z,7.70
2019-04-10T14:00:38.416Z,7.50
2019-04-10T14:03:08.819Z,8.77
2019-04-10T14:05:39.108Z,12.30
2019-04-10T14:08:10.457Z,8.10
2019-04-10T14:10:41.787Z,6.87
2019-04-10T14:13:14.365Z,6.57
2019-04-10T14:15:44.550Z,5.73
2019-04-10T14:18:14.741Z,6.10
2019-04-10T14:20:45.711Z,6.30
2019-04-10T14:23:22.286Z,7.10
2019-04-10T14:26:12.629Z,10.57
2019-04-10T14:28:43.096Z,56.83
2019-04-10T14:31:20.164Z,11.67
2019-04-10T14:33:50.970Z,7.40
2019-04-10T14:36:22.419Z,15.40
2019-04-10T14:38:52.845Z,7.87
2019-04-10T14:41:24.786Z,16.17
2019-04-10T14:43:55.675Z,16.43
2019-04-10T14:46:26.295Z,13.97
2019-04-10T14:48:56.655Z,32.23
2019-04-10T14:51:26.781Z,16.10
2019-04-10T14:53:57.473Z,17.33
2019-04-10T14:56:28.341Z,12.23
2019-04-10T14:58:59.734Z,10.53
2019-04-10T15:01:30.975Z,8.37
2019-04-10T15:04:02.398Z,11.67
2019-04-10T15:06:33.392Z,20.30
2019-04-10T15:09:06.258Z,18.90
2019-04-10T15:11:40.579Z,16.50
2019-04-10T15:14:13.546Z,23.67
2019-04-10T15:16:53.414Z,14.17
2019-04-10T15:19:18.489Z,13.93
2019-04-10T15:21:49.234Z,10.67
2019-04-10T15:24:19.772Z,10.90
2019-04-10T15:26:50.955Z,11.00
2019-04-10T15:29:22.632Z,10.50
2019-04-10T15:31:53.043Z,9.50
2019-04-10T15:34:23.311Z,10.53
2019-04-10T15:36:54.582Z,47.87
2019-04-10T15:39:32.130Z,17.00
2019-04-10T15:41:57.468Z,11.60
2019-04-10T15:44:27.995Z,10.50
2019-04-10T15:47:08.702Z,9.40
2019-04-10T15:49:30.919Z,10.17
2019-04-10T15:52:01.620Z,11.17
2019-04-10T15:54:33.962Z,14.50
2019-04-10T15:57:04.701Z,11.57
2019-04-10T15:59:35.106Z,11.13
2019-04-10T16:02:05.708Z,10.40
2019-04-10T16:04:36.029Z,10.43
2019-04-10T16:07:06.365Z,10.63
2019-04-10T16:09:46.413Z,11.77
2019-04-10T16:12:11.765Z,13.27
2019-04-10T16:14:42.964Z,14.47
2019-04-10T16:17:39.695Z,12.40
2019-04-10T16:20:21.755Z,13.03
2019-04-10T16:23:00.822Z,10.83
2019-04-10T16:25:31.108Z,15.23
2019-04-10T16:28:04.197Z,14.17
2019-04-10T16:30:34.973Z,16.07
2019-04-10T16:33:07.004Z,9.17
2019-04-10T16:35:38.398Z,19.67
2019-04-10T16:38:08.845Z,15.37
2019-04-10T16:40:40.401Z,12.30
2019-04-10T16:43:11.656Z,14.80
2019-04-10T16:45:42.508Z,10.07
2019-04-10T16:48:13.114Z,10.73
2019-04-10T16:50:43.669Z,9.17
2019-04-10T16:53:14.428Z,10.07
2019-04-10T16:55:45.057Z,10.33
2019-04-10T16:58:15.887Z,11.10
2019-04-10T17:00:47.438Z,12.80
2019-04-10T17:03:17.958Z,10.97
2019-04-10T17:05:48.189Z,12.23
2019-04-10T17:08:19.690Z,9.87
2019-04-10T17:10:50.569Z,9.70
2019-04-10T17:13:20.990Z,11.23
2019-04-10T17:15:53.396Z,11.20
2019-04-10T17:18:24.861Z,10.97
2019-04-10T17:20:55.674Z,10.27
2019-04-10T17:23:26.843Z,12.13
2019-04-10T17:25:58.270Z,9.10
2019-04-10T17:28:28.655Z,10.40
2019-04-10T17:31:00.177Z,8.40
2019-04-10T17:33:30.380Z,10.40
2019-04-10T17:36:00.561Z,11.43
2019-04-10T17:38:30.943Z,9.50
2019-04-10T17:41:04.163Z,11.50
2019-04-10T17:43:33.416Z,9.23
2019-04-10T17:46:03.744Z,10.20
2019-04-10T17:48:34.862Z,12.23
2019-04-10T17:51:06.156Z,12.97
2019-04-10T17:53:37.637Z,10.80
2019-04-10T17:56:08.940Z,11.60
2019-04-10T17:58:39.201Z,11.00
2019-04-10T18:01:14.565Z,10.43
2019-04-10T18:03:51.635Z,11.80
2019-04-10T18:06:18.077Z,12.77
2019-04-10T18:08:49.312Z,12.03
2019-04-10T18:11:20.320Z,12.30
2019-04-10T18:13:51.103Z,14.33
2019-04-10T18:16:22.607Z,18.67
2019-04-10T18:18:54.037Z,11.50
2019-04-10T18:21:25.319Z,11.33
2019-04-10T18:23:55.792Z,10.47
2019-04-10T18:26:26.173Z,11.10
2019-04-10T18:28:56.410Z,10.33
2019-04-10T18:31:27.887Z,11.67
2019-04-10T18:33:58.780Z,12.80
2019-04-10T18:36:29.896Z,12.83
2019-04-10T18:39:01.814Z,12.57
2019-04-10T18:41:33.920Z,11.27
2019-04-10T18:44:04.753Z,11.00
2019-04-10T18:46:35.474Z,11.57
2019-04-10T18:49:05.691Z,11.80
2019-04-10T18:51:36.244Z,12.10
2019-04-10T18:54:06.517Z,12.23
2019-04-10T18:56:37.547Z,13.53
2019-04-10T18:59:14.837Z,13.00
2019-04-10T19:02:03.245Z,12.10
2019-04-10T19:04:43.260Z,12.33
2019-04-10T19:07:13.734Z,12.20
2019-04-10T19:09:44.790Z,11.93
2019-04-10T19:12:15.255Z,12.70
2019-04-10T19:14:46.617Z,11.30
2019-04-10T19:17:17.521Z,11.73
2019-04-10T19:19:48.538Z,14.07
2019-04-10T19:22:20.339Z,15.00
2019-04-10T19:24:50.642Z,13.00
2019-04-10T19:27:22.094Z,14.27
2019-04-10T19:29:52.826Z,12.97
2019-04-10T19:32:33.238Z,13.63
2019-04-10T19:35:04.652Z,12.87
2019-04-10T19:37:36.859Z,13.13
2019-04-10T19:40:09.073Z,13.80
2019-04-10T19:42:39.785Z,13.80
2019-04-10T19:45:10.181Z,12.13
2019-04-10T19:47:40.418Z,13.13
2019-04-10T19:50:11.098Z,13.03
2019-04-10T19:52:41.425Z,12.33
2019-04-10T19:55:13.582Z,13.50
2019-04-10T19:57:45.659Z,13.00
2019-04-10T20:00:19.939Z,12.80
2019-04-10T20:02:51.088Z,11.83
2019-04-10T20:05:23.368Z,14.67
2019-04-10T20:07:53.662Z,14.60
2019-04-10T20:10:23.820Z,14.40
2019-04-10T20:12:55.043Z,17.67
2019-04-10T20:15:26.610Z,15.77
2019-04-10T20:17:57.034Z,16.80
2019-04-10T20:20:27.218Z,16.03
2019-04-10T20:22:58.290Z,15.10
2019-04-10T20:25:28.572Z,14.17
2019-04-10T20:27:58.827Z,14.90
2019-04-10T20:30:30.839Z,14.33
2019-04-10T20:33:01.040Z,14.97
2019-04-10T20:35:32.046Z,15.83
2019-04-10T20:38:03.065Z,15.67
2019-04-10T20:40:33.962Z,17.60
2019-04-10T20:43:04.808Z,16.80
2019-04-10T20:45:35.765Z,16.93
2019-04-10T20:48:06.561Z,18.23
2019-04-10T20:50:36.879Z,16.90
2019-04-10T20:53:07.511Z,16.17
2019-04-10T20:55:38.114Z,16.90
2019-04-10T20:58:09.115Z,16.80
2019-04-10T21:00:43.252Z,17.90
2019-04-10T21:03:15.532Z,18.63
2019-04-10T21:05:46.498Z,17.77
2019-04-10T21:08:17.909Z,19.23
2019-04-10T21:10:49.317Z,18.90
2019-04-10T21:13:19.593Z,19.10
2019-04-10T21:15:51.464Z,20.13
2019-04-10T21:18:23.692Z,20.13
2019-04-10T21:20:54.154Z,19.63
2019-04-10T21:23:25.356Z,20.57
2019-04-10T21:25:55.682Z,21.07
2019-04-10T21:28:26.028Z,21.17
2019-04-10T21:31:27.535Z,21.67
2019-04-10T21:34:12.038Z,21.77
2019-04-10T21:36:43.432Z,21.47
2019-04-10T21:39:13.819Z,21.70
2019-04-10T21:41:44.565Z,21.10
2019-04-10T21:44:16.036Z,22.63
2019-04-10T21:46:46.675Z,21.67
2019-04-10T21:49:16.990Z,21.90
2019-04-10T21:51:47.270Z,23.70
2019-04-10T21:54:18.503Z,22.77
2019-04-10T21:56:49.389Z,21.87
2019-04-10T21:59:20.489Z,22.37
2019-04-10T22:01:50.871Z,21.07
2019-04-10T22:04:21.707Z,21.43
2019-04-10T22:07:04.162Z,22.23
2019-04-10T22:09:41.486Z,22.50
2019-04-10T22:12:25.936Z,22.53
2019-04-10T22:14:50.347Z,21.30
2019-04-10T22:17:20.758Z,21.80
2019-04-10T22:19:51.182Z,21.13
2019-04-10T22:22:22.472Z,22.50
2019-04-10T22:24:52.949Z,22.13
2019-04-10T22:27:23.367Z,22.77
2019-04-10T22:29:54.324Z,22.40
2019-04-10T22:32:26.851Z,23.80
2019-04-10T22:34:57.287Z,25.10
2019-04-10T22:37:27.809Z,24.97
2019-04-10T22:39:58.661Z,24.07
2019-04-10T22:42:40.144Z,21.67
2019-04-10T22:45:02.460Z,22.13
2019-04-10T22:47:34.212Z,21.60
2019-04-10T22:50:04.986Z,21.13
2019-04-10T22:52:35.210Z,21.47
2019-04-10T22:55:05.500Z,21.73
2019-04-10T22:57:36.842Z,21.43
2019-04-10T23:00:07.689Z,22.90
2019-04-10T23:02:39.799Z,24.53
2019-04-10T23:05:10.179Z,26.80
2019-04-10T23:07:40.353Z,25.03
2019-04-10T23:10:13.213Z,23.77
2019-04-10T23:12:57.128Z,21.87
2019-04-10T23:15:17.582Z,23.53
2019-04-10T23:17:48.664Z,23.93
2019-04-10T23:20:19.069Z,24.13
2019-04-10T23:22:50.498Z,24.70
2019-04-10T23:25:20.922Z,24.90
2019-04-10T23:27:53.460Z,24.73
2019-04-10T23:30:23.078Z,24.33
2019-04-10T23:32:53.555Z,24.13
2019-04-10T23:35:23.954Z,25.03
2019-04-10T23:37:55.195Z,23.33
2019-04-10T23:40:25.580Z,23.40
2019-04-10T23:43:05.768Z,22.67
2019-04-10T23:45:38.058Z,23.30
2019-04-10T23:48:08.759Z,22.13
2019-04-10T23:50:39.107Z,22.13
2019-04-10T23:53:09.350Z,22.57
2019-04-10T23:55:39.865Z,22.43
2019-04-10T23:58:10.179Z,22.33
